sensor_id;sensor_type;location;lat;lon;timestamp;temperature;humidity
15105;DHT22;7653;48.994;9.212;2022-11-10T00:00:27;12.10;93.90
15105;DHT22;7653;48.994;9.212;2022-11-10T00:02:53;12.10;93.90
15105;DHT22;7653;48.994;9.212;2022-11-10T00:05:19;12.10;93.70
15105;DHT22;7653;48.994;9.212;2022-11-10T00:07:44;12.20;93.40
15105;DHT22;7653;48.994;9.212;2022-11-10T00:10:10;12.10;93.20
15105;DHT22;7653;48.994;9.212;2022-11-10T00:12:36;12.10;93.30
15105;DHT22;7653;48.994;9.212;2022-11-10T00:15:02;12.10;93.30
15105;DHT22;7653;48.994;9.212;2022-11-10T00:17:47;12.00;93.30
15105;DHT22;7653;48.994;9.212;2022-11-10T00:20:12;11.90;93.40
15105;DHT22;7653;48.994;9.212;2022-11-10T00:22:39;12.00;93.90
15105;DHT22;7653;48.994;9.212;2022-11-10T00:25:06;12.00;93.90
15105;DHT22;7653;48.994;9.212;2022-11-10T00:27:33;12.00;93.70
15105;DHT22;7653;48.994;9.212;2022-11-10T00:29:59;12.00;93.40
15105;DHT22;7653;48.994;9.212;2022-11-10T00:32:24;11.90;93.40
15105;DHT22;7653;48.994;9.212;2022-11-10T00:34:50;11.80;93.80
15105;DHT22;7653;48.994;9.212;2022-11-10T00:37:16;11.90;93.90
15105;DHT22;7653;48.994;9.212;2022-11-10T00:39:42;11.80;94.00
15105;DHT22;7653;48.994;9.212;2022-11-10T00:42:07;11.80;94.40
15105;DHT22;7653;48.994;9.212;2022-11-10T00:44:33;11.90;93.90
15105;DHT22;7653;48.994;9.212;2022-11-10T00:46:59;11.90;93.90
15105;DHT22;7653;48.994;9.212;2022-11-10T00:49:25;11.90;93.90
15105;DHT22;7653;48.994;9.212;2022-11-10T00:51:50;11.80;93.80
15105;DHT22;7653;48.994;9.212;2022-11-10T00:54:16;11.90;93.90
15105;DHT22;7653;48.994;9.212;2022-11-10T00:56:42;11.90;93.90
15105;DHT22;7653;48.994;9.212;2022-11-10T00:59:07;11.80;93.40
15105;DHT22;7653;48.994;9.212;2022-11-10T01:01:33;11.80;93.80
15105;DHT22;7653;48.994;9.212;2022-11-10T01:03:59;11.80;93.80
15105;DHT22;7653;48.994;9.212;2022-11-10T01:06:25;11.80;93.80
15105;DHT22;7653;48.994;9.212;2022-11-10T01:08:51;11.80;93.80
15105;DHT22;7653;48.994;9.212;2022-11-10T01:11:20;11.90;93.90
15105;DHT22;7653;48.994;9.212;2022-11-10T01:13:46;11.90;93.50
15105;DHT22;7653;48.994;9.212;2022-11-10T01:16:14;11.80;93.30
15105;DHT22;7653;48.994;9.212;2022-11-10T01:18:41;11.90;93.50
15105;DHT22;7653;48.994;9.212;2022-11-10T01:21:08;11.90;93.30
15105;DHT22;7653;48.994;9.212;2022-11-10T01:23:34;11.90;93.10
15105;DHT22;7653;48.994;9.212;2022-11-10T01:26:02;11.90;93.40
15105;DHT22;7653;48.994;9.212;2022-11-10T01:28:29;11.70;93.50
15105;DHT22;7653;48.994;9.212;2022-11-10T01:31:07;11.60;93.80
15105;DHT22;7653;48.994;9.212;2022-11-10T01:33:33;11.70;94.80
15105;DHT22;7653;48.994;9.212;2022-11-10T01:35:59;11.70;94.80
15105;DHT22;7653;48.994;9.212;2022-11-10T01:38:30;11.50;95.20
15105;DHT22;7653;48.994;9.212;2022-11-10T01:40:57;11.60;95.60
15105;DHT22;7653;48.994;9.212;2022-11-10T01:43:23;11.60;95.40
15105;DHT22;7653;48.994;9.212;2022-11-10T01:46:10;11.60;95.00
15105;DHT22;7653;48.994;9.212;2022-11-10T01:48:47;11.60;94.60
15105;DHT22;7653;48.994;9.212;2022-11-10T01:54:01;11.50;94.60
15105;DHT22;7653;48.994;9.212;2022-11-10T01:56:29;11.50;94.80
15105;DHT22;7653;48.994;9.212;2022-11-10T01:59:00;11.40;95.10
15105;DHT22;7653;48.994;9.212;2022-11-10T02:01:26;11.40;94.80
15105;DHT22;7653;48.994;9.212;2022-11-10T02:03:53;11.40;94.70
15105;DHT22;7653;48.994;9.212;2022-11-10T02:06:22;11.40;94.60
15105;DHT22;7653;48.994;9.212;2022-11-10T02:08:49;11.50;94.30
15105;DHT22;7653;48.994;9.212;2022-11-10T02:11:15;11.40;94.00
15105;DHT22;7653;48.994;9.212;2022-11-10T02:13:42;11.40;94.30
15105;DHT22;7653;48.994;9.212;2022-11-10T02:16:08;11.40;94.40
15105;DHT22;7653;48.994;9.212;2022-11-10T02:18:36;11.30;94.50
15105;DHT22;7653;48.994;9.212;2022-11-10T02:21:06;11.30;94.60
15105;DHT22;7653;48.994;9.212;2022-11-10T02:25:59;11.20;95.50
15105;DHT22;7653;48.994;9.212;2022-11-10T02:28:25;11.20;95.50
15105;DHT22;7653;48.994;9.212;2022-11-10T02:30:52;11.10;95.60
15105;DHT22;7653;48.994;9.212;2022-11-10T02:33:18;11.10;96.00
15105;DHT22;7653;48.994;9.212;2022-11-10T02:35:46;11.00;95.70
15105;DHT22;7653;48.994;9.212;2022-11-10T02:38:13;10.80;95.30
15105;DHT22;7653;48.994;9.212;2022-11-10T02:40:39;10.90;95.70
15105;DHT22;7653;48.994;9.212;2022-11-10T02:43:07;10.80;95.70
15105;DHT22;7653;48.994;9.212;2022-11-10T02:45:34;10.80;96.20
15105;DHT22;7653;48.994;9.212;2022-11-10T02:48:10;10.80;96.40
15105;DHT22;7653;48.994;9.212;2022-11-10T02:50:36;10.80;96.70
15105;DHT22;7653;48.994;9.212;2022-11-10T02:53:02;10.80;96.90
15105;DHT22;7653;48.994;9.212;2022-11-10T02:55:28;10.70;97.30
15105;DHT22;7653;48.994;9.212;2022-11-10T02:57:55;10.60;97.10
15105;DHT22;7653;48.994;9.212;2022-11-10T03:00:20;10.60;97.10
15105;DHT22;7653;48.994;9.212;2022-11-10T03:02:46;10.50;97.10
15105;DHT22;7653;48.994;9.212;2022-11-10T03:05:12;10.50;97.10
15105;DHT22;7653;48.994;9.212;2022-11-10T03:07:37;10.40;96.70
15105;DHT22;7653;48.994;9.212;2022-11-10T03:10:04;10.20;95.50
15105;DHT22;7653;48.994;9.212;2022-11-10T03:12:30;10.20;96.70
15105;DHT22;7653;48.994;9.212;2022-11-10T03:14:56;10.30;97.10
15105;DHT22;7653;48.994;9.212;2022-11-10T03:17:22;10.40;97.10
15105;DHT22;7653;48.994;9.212;2022-11-10T03:19:47;10.30;97.20
15105;DHT22;7653;48.994;9.212;2022-11-10T03:22:14;10.40;98.30
15105;DHT22;7653;48.994;9.212;2022-11-10T03:24:39;10.50;98.10
15105;DHT22;7653;48.994;9.212;2022-11-10T03:27:06;10.50;98.30
15105;DHT22;7653;48.994;9.212;2022-11-10T03:29:33;10.60;98.40
15105;DHT22;7653;48.994;9.212;2022-11-10T03:31:59;10.60;98.60
15105;DHT22;7653;48.994;9.212;2022-11-10T03:34:25;10.70;98.20
15105;DHT22;7653;48.994;9.212;2022-11-10T03:36:50;10.60;97.60
15105;DHT22;7653;48.994;9.212;2022-11-10T03:39:18;10.50;97.20
15105;DHT22;7653;48.994;9.212;2022-11-10T03:41:44;10.50;97.70
15105;DHT22;7653;48.994;9.212;2022-11-10T03:44:09;10.40;97.30
15105;DHT22;7653;48.994;9.212;2022-11-10T03:46:35;10.40;97.30
15105;DHT22;7653;48.994;9.212;2022-11-10T03:49:00;10.50;97.20
15105;DHT22;7653;48.994;9.212;2022-11-10T03:51:26;10.50;97.50
15105;DHT22;7653;48.994;9.212;2022-11-10T03:53:51;10.50;97.60
15105;DHT22;7653;48.994;9.212;2022-11-10T03:56:17;10.50;97.30
15105;DHT22;7653;48.994;9.212;2022-11-10T03:58:43;10.50;97.40
15105;DHT22;7653;48.994;9.212;2022-11-10T04:01:08;10.30;97.10
15105;DHT22;7653;48.994;9.212;2022-11-10T04:03:34;10.20;97.00
15105;DHT22;7653;48.994;9.212;2022-11-10T04:06:00;10.30;97.40
15105;DHT22;7653;48.994;9.212;2022-11-10T04:08:44;10.20;97.80
15105;DHT22;7653;48.994;9.212;2022-11-10T04:11:27;10.20;98.00
15105;DHT22;7653;48.994;9.212;2022-11-10T04:14:12;10.30;98.40
15105;DHT22;7653;48.994;9.212;2022-11-10T04:16:59;10.30;99.00
15105;DHT22;7653;48.994;9.212;2022-11-10T04:19:29;10.30;98.80
15105;DHT22;7653;48.994;9.212;2022-11-10T04:21:55;10.30;98.50
15105;DHT22;7653;48.994;9.212;2022-11-10T04:24:21;10.30;98.20
15105;DHT22;7653;48.994;9.212;2022-11-10T04:26:49;10.30;98.40
15105;DHT22;7653;48.994;9.212;2022-11-10T04:29:16;10.20;98.10
15105;DHT22;7653;48.994;9.212;2022-11-10T04:31:44;10.20;98.00
15105;DHT22;7653;48.994;9.212;2022-11-10T04:34:12;10.10;97.40
15105;DHT22;7653;48.994;9.212;2022-11-10T04:36:40;10.00;97.30
15105;DHT22;7653;48.994;9.212;2022-11-10T04:39:07;9.90;98.20
15105;DHT22;7653;48.994;9.212;2022-11-10T04:41:34;10.00;98.20
15105;DHT22;7653;48.994;9.212;2022-11-10T04:44:04;9.90;98.40
15105;DHT22;7653;48.994;9.212;2022-11-10T04:46:38;9.90;98.50
15105;DHT22;7653;48.994;9.212;2022-11-10T04:49:07;9.80;98.00
15105;DHT22;7653;48.994;9.212;2022-11-10T04:51:34;9.70;98.00
15105;DHT22;7653;48.994;9.212;2022-11-10T04:54:01;9.50;98.50
15105;DHT22;7653;48.994;9.212;2022-11-10T04:56:27;9.50;98.80
15105;DHT22;7653;48.994;9.212;2022-11-10T04:58:53;9.30;98.40
15105;DHT22;7653;48.994;9.212;2022-11-10T05:01:22;9.40;98.70
15105;DHT22;7653;48.994;9.212;2022-11-10T05:03:49;9.50;99.00
15105;DHT22;7653;48.994;9.212;2022-11-10T05:06:15;9.40;98.50
15105;DHT22;7653;48.994;9.212;2022-11-10T05:08:43;9.30;98.40
15105;DHT22;7653;48.994;9.212;2022-11-10T05:11:11;9.40;98.70
15105;DHT22;7653;48.994;9.212;2022-11-10T05:13:37;9.40;98.80
15105;DHT22;7653;48.994;9.212;2022-11-10T05:16:04;9.30;99.00
15105;DHT22;7653;48.994;9.212;2022-11-10T05:18:30;9.30;99.20
15105;DHT22;7653;48.994;9.212;2022-11-10T05:20:55;9.40;99.30
15105;DHT22;7653;48.994;9.212;2022-11-10T05:23:22;9.30;98.90
15105;DHT22;7653;48.994;9.212;2022-11-10T05:28:34;9.00;98.60
15105;DHT22;7653;48.994;9.212;2022-11-10T05:31:00;9.00;98.70
15105;DHT22;7653;48.994;9.212;2022-11-10T05:33:28;9.00;98.30
15105;DHT22;7653;48.994;9.212;2022-11-10T05:35:54;8.90;97.80
15105;DHT22;7653;48.994;9.212;2022-11-10T05:38:21;8.80;97.80
15105;DHT22;7653;48.994;9.212;2022-11-10T05:40:48;8.90;98.10
15105;DHT22;7653;48.994;9.212;2022-11-10T05:43:13;8.70;97.60
15105;DHT22;7653;48.994;9.212;2022-11-10T05:45:39;8.80;98.50
15105;DHT22;7653;48.994;9.212;2022-11-10T05:48:05;8.80;98.80
15105;DHT22;7653;48.994;9.212;2022-11-10T05:50:31;8.70;98.20
15105;DHT22;7653;48.994;9.212;2022-11-10T05:52:57;8.80;98.50
15105;DHT22;7653;48.994;9.212;2022-11-10T05:55:26;8.80;98.50
15105;DHT22;7653;48.994;9.212;2022-11-10T05:57:54;8.70;98.30
15105;DHT22;7653;48.994;9.212;2022-11-10T06:00:25;8.90;99.20
15105;DHT22;7653;48.994;9.212;2022-11-10T06:05:30;8.30;97.00
15105;DHT22;7653;48.994;9.212;2022-11-10T06:07:57;8.10;98.10
15105;DHT22;7653;48.994;9.212;2022-11-10T06:10:23;8.10;98.60
15105;DHT22;7653;48.994;9.212;2022-11-10T06:12:49;8.20;98.60
15105;DHT22;7653;48.994;9.212;2022-11-10T06:15:15;8.20;98.90
15105;DHT22;7653;48.994;9.212;2022-11-10T06:17:41;8.20;98.80
15105;DHT22;7653;48.994;9.212;2022-11-10T06:20:09;8.30;98.60
15105;DHT22;7653;48.994;9.212;2022-11-10T06:22:36;8.20;98.40
15105;DHT22;7653;48.994;9.212;2022-11-10T06:25:02;8.20;98.40
15105;DHT22;7653;48.994;9.212;2022-11-10T06:27:28;8.10;97.90
15105;DHT22;7653;48.994;9.212;2022-11-10T06:29:53;8.00;97.70
15105;DHT22;7653;48.994;9.212;2022-11-10T06:32:19;8.10;97.90
15105;DHT22;7653;48.994;9.212;2022-11-10T06:34:45;8.10;98.10
15105;DHT22;7653;48.994;9.212;2022-11-10T06:37:10;8.10;97.80
15105;DHT22;7653;48.994;9.212;2022-11-10T06:39:36;8.00;97.80
15105;DHT22;7653;48.994;9.212;2022-11-10T06:42:01;8.10;97.70
15105;DHT22;7653;48.994;9.212;2022-11-10T06:44:27;8.10;97.40
15105;DHT22;7653;48.994;9.212;2022-11-10T06:46:53;7.90;96.70
15105;DHT22;7653;48.994;9.212;2022-11-10T06:49:18;8.00;97.20
15105;DHT22;7653;48.994;9.212;2022-11-10T06:51:44;8.10;97.50
15105;DHT22;7653;48.994;9.212;2022-11-10T06:54:09;8.10;97.60
15105;DHT22;7653;48.994;9.212;2022-11-10T06:56:35;8.40;98.40
15105;DHT22;7653;48.994;9.212;2022-11-10T06:59:01;8.60;98.80
15105;DHT22;7653;48.994;9.212;2022-11-10T07:01:26;8.70;98.30
15105;DHT22;7653;48.994;9.212;2022-11-10T07:03:52;8.80;97.90
15105;DHT22;7653;48.994;9.212;2022-11-10T07:06:19;8.70;97.60
15105;DHT22;7653;48.994;9.212;2022-11-10T07:08:45;8.80;97.50
15105;DHT22;7653;48.994;9.212;2022-11-10T07:11:11;8.80;96.90
15105;DHT22;7653;48.994;9.212;2022-11-10T07:13:37;8.90;97.00
15105;DHT22;7653;48.994;9.212;2022-11-10T07:16:04;8.90;97.00
15105;DHT22;7653;48.994;9.212;2022-11-10T07:18:29;8.80;96.20
15105;DHT22;7653;48.994;9.212;2022-11-10T07:20:55;8.80;96.90
15105;DHT22;7653;48.994;9.212;2022-11-10T07:23:21;8.80;96.60
15105;DHT22;7653;48.994;9.212;2022-11-10T07:25:46;8.70;96.10
15105;DHT22;7653;48.994;9.212;2022-11-10T07:28:12;8.60;96.20
15105;DHT22;7653;48.994;9.212;2022-11-10T07:30:37;8.50;96.40
15105;DHT22;7653;48.994;9.212;2022-11-10T07:33:10;8.60;96.90
15105;DHT22;7653;48.994;9.212;2022-11-10T07:35:36;8.70;96.90
15105;DHT22;7653;48.994;9.212;2022-11-10T07:38:08;8.80;96.90
15105;DHT22;7653;48.994;9.212;2022-11-10T07:40:34;8.90;97.00
15105;DHT22;7653;48.994;9.212;2022-11-10T07:43:01;8.90;97.00
15105;DHT22;7653;48.994;9.212;2022-11-10T07:45:26;9.00;96.90
15105;DHT22;7653;48.994;9.212;2022-11-10T07:48:00;9.00;96.60
15105;DHT22;7653;48.994;9.212;2022-11-10T07:50:28;9.10;96.20
15105;DHT22;7653;48.994;9.212;2022-11-10T07:53:05;8.90;95.80
15105;DHT22;7653;48.994;9.212;2022-11-10T07:55:31;8.90;95.80
15105;DHT22;7653;48.994;9.212;2022-11-10T07:57:57;8.90;96.10
15105;DHT22;7653;48.994;9.212;2022-11-10T08:00:24;9.00;96.40
15105;DHT22;7653;48.994;9.212;2022-11-10T08:02:50;9.00;97.00
15105;DHT22;7653;48.994;9.212;2022-11-10T08:05:17;9.00;97.00
15105;DHT22;7653;48.994;9.212;2022-11-10T08:07:43;9.00;97.00
15105;DHT22;7653;48.994;9.212;2022-11-10T08:10:09;9.00;97.00
15105;DHT22;7653;48.994;9.212;2022-11-10T08:12:35;9.10;97.10
15105;DHT22;7653;48.994;9.212;2022-11-10T08:15:02;9.10;97.50
15105;DHT22;7653;48.994;9.212;2022-11-10T08:17:28;9.20;97.90
15105;DHT22;7653;48.994;9.212;2022-11-10T08:19:53;9.30;98.00
15105;DHT22;7653;48.994;9.212;2022-11-10T08:22:19;9.30;97.20
15105;DHT22;7653;48.994;9.212;2022-11-10T08:24:44;9.20;97.60
15105;DHT22;7653;48.994;9.212;2022-11-10T08:27:10;9.30;98.20
15105;DHT22;7653;48.994;9.212;2022-11-10T08:29:36;9.50;98.40
15105;DHT22;7653;48.994;9.212;2022-11-10T08:32:02;9.70;98.10
15105;DHT22;7653;48.994;9.212;2022-11-10T08:34:29;9.70;97.50
15105;DHT22;7653;48.994;9.212;2022-11-10T08:36:56;9.80;97.40
15105;DHT22;7653;48.994;9.212;2022-11-10T08:39:21;9.80;96.70
15105;DHT22;7653;48.994;9.212;2022-11-10T08:41:50;9.90;96.10
15105;DHT22;7653;48.994;9.212;2022-11-10T08:44:16;10.00;95.20
15105;DHT22;7653;48.994;9.212;2022-11-10T08:46:41;10.20;94.80
15105;DHT22;7653;48.994;9.212;2022-11-10T08:49:08;10.40;94.20
15105;DHT22;7653;48.994;9.212;2022-11-10T08:51:34;10.40;93.20
15105;DHT22;7653;48.994;9.212;2022-11-10T08:54:00;10.50;93.30
15105;DHT22;7653;48.994;9.212;2022-11-10T08:56:26;10.60;92.90
15105;DHT22;7653;48.994;9.212;2022-11-10T08:58:51;10.80;92.20
15105;DHT22;7653;48.994;9.212;2022-11-10T09:01:18;10.80;91.10
15105;DHT22;7653;48.994;9.212;2022-11-10T09:03:44;10.90;90.50
15105;DHT22;7653;48.994;9.212;2022-11-10T09:06:09;10.90;90.20
15105;DHT22;7653;48.994;9.212;2022-11-10T09:08:35;11.00;88.90
15105;DHT22;7653;48.994;9.212;2022-11-10T09:11:02;11.10;88.30
15105;DHT22;7653;48.994;9.212;2022-11-10T09:13:31;11.20;86.70
15105;DHT22;7653;48.994;9.212;2022-11-10T09:16:03;11.20;85.80
15105;DHT22;7653;48.994;9.212;2022-11-10T09:18:29;11.30;84.70
15105;DHT22;7653;48.994;9.212;2022-11-10T09:20:55;11.40;82.20
15105;DHT22;7653;48.994;9.212;2022-11-10T09:23:21;11.40;78.20
15105;DHT22;7653;48.994;9.212;2022-11-10T09:25:50;11.40;77.40
15105;DHT22;7653;48.994;9.212;2022-11-10T09:28:17;11.40;78.90
15105;DHT22;7653;48.994;9.212;2022-11-10T09:30:45;11.50;77.70
15105;DHT22;7653;48.994;9.212;2022-11-10T09:33:10;11.50;76.80
15105;DHT22;7653;48.994;9.212;2022-11-10T09:35:36;11.50;76.30
15105;DHT22;7653;48.994;9.212;2022-11-10T09:38:02;11.50;75.60
15105;DHT22;7653;48.994;9.212;2022-11-10T09:43:32;11.60;73.60
15105;DHT22;7653;48.994;9.212;2022-11-10T09:46:31;11.60;74.40
15105;DHT22;7653;48.994;9.212;2022-11-10T09:48:59;11.70;74.30
15105;DHT22;7653;48.994;9.212;2022-11-10T09:51:33;11.70;74.70
15105;DHT22;7653;48.994;9.212;2022-11-10T09:56:31;11.80;68.80
15105;DHT22;7653;48.994;9.212;2022-11-10T09:58:57;11.90;68.30
15105;DHT22;7653;48.994;9.212;2022-11-10T10:01:36;12.00;70.10
15105;DHT22;7653;48.994;9.212;2022-11-10T10:04:42;12.00;67.90
15105;DHT22;7653;48.994;9.212;2022-11-10T10:15:02;12.30;64.40
15105;DHT22;7653;48.994;9.212;2022-11-10T10:17:33;12.30;62.00
15105;DHT22;7653;48.994;9.212;2022-11-10T10:25:26;12.60;60.40
15105;DHT22;7653;48.994;9.212;2022-11-10T10:28:05;12.70;61.00
15105;DHT22;7653;48.994;9.212;2022-11-10T10:30:32;12.70;59.30
15105;DHT22;7653;48.994;9.212;2022-11-10T10:33:26;12.80;58.10
15105;DHT22;7653;48.994;9.212;2022-11-10T10:35:52;12.80;55.50
15105;DHT22;7653;48.994;9.212;2022-11-10T10:38:33;12.90;55.60
15105;DHT22;7653;48.994;9.212;2022-11-10T10:41:25;13.00;56.40
15105;DHT22;7653;48.994;9.212;2022-11-10T10:43:54;13.00;55.70
15105;DHT22;7653;48.994;9.212;2022-11-10T10:46:20;13.10;53.20
15105;DHT22;7653;48.994;9.212;2022-11-10T10:49:18;13.10;52.20
15105;DHT22;7653;48.994;9.212;2022-11-10T10:51:44;13.20;54.20
15105;DHT22;7653;48.994;9.212;2022-11-10T10:54:31;13.30;52.60
15105;DHT22;7653;48.994;9.212;2022-11-10T10:57:01;13.30;53.40
15105;DHT22;7653;48.994;9.212;2022-11-10T10:59:27;13.40;53.50
15105;DHT22;7653;48.994;9.212;2022-11-10T11:01:54;13.40;49.90
15105;DHT22;7653;48.994;9.212;2022-11-10T11:04:34;13.50;47.30
15105;DHT22;7653;48.994;9.212;2022-11-10T11:07:11;13.40;47.00
15105;DHT22;7653;48.994;9.212;2022-11-10T11:09:44;13.40;48.20
15105;DHT22;7653;48.994;9.212;2022-11-10T11:14:44;13.60;46.80
15105;DHT22;7653;48.994;9.212;2022-11-10T11:17:21;13.60;45.20
15105;DHT22;7653;48.994;9.212;2022-11-10T11:19:47;13.70;45.40
15105;DHT22;7653;48.994;9.212;2022-11-10T11:25:28;13.80;44.10
15105;DHT22;7653;48.994;9.212;2022-11-10T11:30:53;13.90;44.20
15105;DHT22;7653;48.994;9.212;2022-11-10T11:44:44;14.20;40.60
15105;DHT22;7653;48.994;9.212;2022-11-10T11:47:35;14.20;42.30
15105;DHT22;7653;48.994;9.212;2022-11-10T11:50:19;14.00;45.30
15105;DHT22;7653;48.994;9.212;2022-11-10T11:58:43;14.20;40.50
15105;DHT22;7653;48.994;9.212;2022-11-10T12:10:19;14.30;38.90
15105;DHT22;7653;48.994;9.212;2022-11-10T12:18:17;14.60;38.90
15105;DHT22;7653;48.994;9.212;2022-11-10T12:21:32;14.70;39.20
15105;DHT22;7653;48.994;9.212;2022-11-10T12:35:04;14.80;33.90
15105;DHT22;7653;48.994;9.212;2022-11-10T12:37:43;14.60;34.70
15105;DHT22;7653;48.994;9.212;2022-11-10T12:42:42;14.70;34.40
15105;DHT22;7653;48.994;9.212;2022-11-10T12:45:34;14.80;34.40
15105;DHT22;7653;48.994;9.212;2022-11-10T12:48:02;15.00;33.30
15105;DHT22;7653;48.994;9.212;2022-11-10T12:53:25;14.90;32.80
15105;DHT22;7653;48.994;9.212;2022-11-10T12:55:59;15.10;32.70
15105;DHT22;7653;48.994;9.212;2022-11-10T12:58:26;15.20;32.40
15105;DHT22;7653;48.994;9.212;2022-11-10T13:00:59;15.50;30.70
15105;DHT22;7653;48.994;9.212;2022-11-10T13:03:31;15.70;30.50
15105;DHT22;7653;48.994;9.212;2022-11-10T13:06:00;16.00;28.30
15105;DHT22;7653;48.994;9.212;2022-11-10T13:13:54;16.50;27.10
15105;DHT22;7653;48.994;9.212;2022-11-10T13:24:22;17.30;25.50
15105;DHT22;7653;48.994;9.212;2022-11-10T13:26:49;17.70;24.70
15105;DHT22;7653;48.994;9.212;2022-11-10T13:29:54;17.80;23.40
15105;DHT22;7653;48.994;9.212;2022-11-10T13:34:52;18.00;24.00
15105;DHT22;7653;48.994;9.212;2022-11-10T13:37:41;18.10;23.60
15105;DHT22;7653;48.994;9.212;2022-11-10T13:40:28;18.30;22.90
15105;DHT22;7653;48.994;9.212;2022-11-10T13:50:54;18.30;21.90
15105;DHT22;7653;48.994;9.212;2022-11-10T13:58:45;17.70;23.90
15105;DHT22;7653;48.994;9.212;2022-11-10T14:07:22;18.70;21.50
15105;DHT22;7653;48.994;9.212;2022-11-10T14:09:51;17.00;25.00
15105;DHT22;7653;48.994;9.212;2022-11-10T14:15:05;18.20;22.30
15105;DHT22;7653;48.994;9.212;2022-11-10T14:17:49;18.50;22.00
15105;DHT22;7653;48.994;9.212;2022-11-10T14:20:41;17.30;23.40
15105;DHT22;7653;48.994;9.212;2022-11-10T14:26:04;17.50;23.60
15105;DHT22;7653;48.994;9.212;2022-11-10T14:28:33;17.60;22.40
15105;DHT22;7653;48.994;9.212;2022-11-10T14:30:59;17.70;22.20
15105;DHT22;7653;48.994;9.212;2022-11-10T14:33:26;17.70;22.60
15105;DHT22;7653;48.994;9.212;2022-11-10T14:35:59;17.40;23.60
15105;DHT22;7653;48.994;9.212;2022-11-10T14:38:28;17.30;23.50
15105;DHT22;7653;48.994;9.212;2022-11-10T14:40:58;17.30;23.50
15105;DHT22;7653;48.994;9.212;2022-11-10T14:45:54;17.30;24.00
15105;DHT22;7653;48.994;9.212;2022-11-10T14:48:24;17.20;24.60
15105;DHT22;7653;48.994;9.212;2022-11-10T14:50:50;16.80;26.20
15105;DHT22;7653;48.994;9.212;2022-11-10T14:53:22;16.60;27.10
15105;DHT22;7653;48.994;9.212;2022-11-10T14:55:50;16.20;28.10
15105;DHT22;7653;48.994;9.212;2022-11-10T14:58:26;16.10;28.70
15105;DHT22;7653;48.994;9.212;2022-11-10T15:00:55;15.90;29.30
15105;DHT22;7653;48.994;9.212;2022-11-10T15:03:36;15.70;29.40
15105;DHT22;7653;48.994;9.212;2022-11-10T15:06:06;15.70;30.60
15105;DHT22;7653;48.994;9.212;2022-11-10T15:08:34;15.50;30.30
15105;DHT22;7653;48.994;9.212;2022-11-10T15:11:01;15.50;31.40
15105;DHT22;7653;48.994;9.212;2022-11-10T15:18:47;15.20;32.90
15105;DHT22;7653;48.994;9.212;2022-11-10T15:21:17;15.30;33.80
15105;DHT22;7653;48.994;9.212;2022-11-10T15:23:50;15.30;35.40
15105;DHT22;7653;48.994;9.212;2022-11-10T15:26:26;14.90;36.80
15105;DHT22;7653;48.994;9.212;2022-11-10T15:28:53;15.00;37.00
15105;DHT22;7653;48.994;9.212;2022-11-10T15:31:26;14.70;37.60
15105;DHT22;7653;48.994;9.212;2022-11-10T15:33:54;14.50;38.90
15105;DHT22;7653;48.994;9.212;2022-11-10T15:41:47;14.50;39.70
15105;DHT22;7653;48.994;9.212;2022-11-10T15:46:51;14.50;40.30
15105;DHT22;7653;48.994;9.212;2022-11-10T15:49:19;14.50;41.20
15105;DHT22;7653;48.994;9.212;2022-11-10T15:51:45;14.50;41.20
15105;DHT22;7653;48.994;9.212;2022-11-10T15:54:11;14.40;41.40
15105;DHT22;7653;48.994;9.212;2022-11-10T15:56:37;14.40;41.40
15105;DHT22;7653;48.994;9.212;2022-11-10T15:59:03;14.10;41.10
15105;DHT22;7653;48.994;9.212;2022-11-10T16:01:29;13.70;44.00
15105;DHT22;7653;48.994;9.212;2022-11-10T16:03:55;13.40;45.30
15105;DHT22;7653;48.994;9.212;2022-11-10T16:06:21;12.80;49.30
15105;DHT22;7653;48.994;9.212;2022-11-10T16:08:47;12.10;53.70
15105;DHT22;7653;48.994;9.212;2022-11-10T16:11:19;12.00;55.60
15105;DHT22;7653;48.994;9.212;2022-11-10T16:13:47;12.30;55.00
15105;DHT22;7653;48.994;9.212;2022-11-10T16:16:14;12.60;52.70
15105;DHT22;7653;48.994;9.212;2022-11-10T16:18:45;12.70;50.50
15105;DHT22;7653;48.994;9.212;2022-11-10T16:21:16;12.90;49.90
15105;DHT22;7653;48.994;9.212;2022-11-10T16:23:43;12.80;48.80
15105;DHT22;7653;48.994;9.212;2022-11-10T16:26:17;12.80;49.50
15105;DHT22;7653;48.994;9.212;2022-11-10T16:28:44;12.80;48.60
15105;DHT22;7653;48.994;9.212;2022-11-10T16:31:21;12.80;49.30
15105;DHT22;7653;48.994;9.212;2022-11-10T16:33:48;12.80;49.30
15105;DHT22;7653;48.994;9.212;2022-11-10T16:36:29;12.60;49.40
15105;DHT22;7653;48.994;9.212;2022-11-10T16:38:56;12.60;48.80
15105;DHT22;7653;48.994;9.212;2022-11-10T16:41:22;12.40;49.70
15105;DHT22;7653;48.994;9.212;2022-11-10T16:43:48;12.30;51.20
15105;DHT22;7653;48.994;9.212;2022-11-10T16:46:23;12.20;51.50
15105;DHT22;7653;48.994;9.212;2022-11-10T16:48:52;12.20;52.30
15105;DHT22;7653;48.994;9.212;2022-11-10T16:51:29;11.90;52.10
15105;DHT22;7653;48.994;9.212;2022-11-10T16:53:55;11.80;53.10
15105;DHT22;7653;48.994;9.212;2022-11-10T16:56:23;11.50;55.20
15105;DHT22;7653;48.994;9.212;2022-11-10T16:58:51;11.50;55.60
15105;DHT22;7653;48.994;9.212;2022-11-10T17:01:22;11.40;55.50
15105;DHT22;7653;48.994;9.212;2022-11-10T17:03:52;11.20;55.80
15105;DHT22;7653;48.994;9.212;2022-11-10T17:06:19;11.10;57.40
15105;DHT22;7653;48.994;9.212;2022-11-10T17:08:48;11.10;57.80
15105;DHT22;7653;48.994;9.212;2022-11-10T17:11:14;10.90;58.40
15105;DHT22;7653;48.994;9.212;2022-11-10T17:13:40;10.80;60.60
15105;DHT22;7653;48.994;9.212;2022-11-10T17:16:25;10.80;59.90
15105;DHT22;7653;48.994;9.212;2022-11-10T17:19:03;10.50;59.50
15105;DHT22;7653;48.994;9.212;2022-11-10T17:21:31;10.40;61.30
15105;DHT22;7653;48.994;9.212;2022-11-10T17:23:58;10.30;61.90
15105;DHT22;7653;48.994;9.212;2022-11-10T17:26:24;10.20;62.40
15105;DHT22;7653;48.994;9.212;2022-11-10T17:28:50;10.20;63.70
15105;DHT22;7653;48.994;9.212;2022-11-10T17:31:16;10.20;64.10
15105;DHT22;7653;48.994;9.212;2022-11-10T17:33:41;10.20;64.20
15105;DHT22;7653;48.994;9.212;2022-11-10T17:36:13;10.00;64.50
15105;DHT22;7653;48.994;9.212;2022-11-10T17:38:41;9.80;65.80
15105;DHT22;7653;48.994;9.212;2022-11-10T17:41:15;9.50;67.00
15105;DHT22;7653;48.994;9.212;2022-11-10T17:43:42;9.30;66.50
15105;DHT22;7653;48.994;9.212;2022-11-10T17:46:08;9.30;68.00
15105;DHT22;7653;48.994;9.212;2022-11-10T17:48:34;9.50;70.10
15105;DHT22;7653;48.994;9.212;2022-11-10T17:50:59;9.70;70.20
15105;DHT22;7653;48.994;9.212;2022-11-10T17:53:26;9.80;70.30
15105;DHT22;7653;48.994;9.212;2022-11-10T17:55:53;9.90;68.60
15105;DHT22;7653;48.994;9.212;2022-11-10T17:58:19;9.80;66.60
15105;DHT22;7653;48.994;9.212;2022-11-10T18:00:45;9.80;67.40
15105;DHT22;7653;48.994;9.212;2022-11-10T18:03:16;9.60;66.50
15105;DHT22;7653;48.994;9.212;2022-11-10T18:05:42;9.10;68.20
15105;DHT22;7653;48.994;9.212;2022-11-10T18:08:09;9.00;71.20
15105;DHT22;7653;48.994;9.212;2022-11-10T18:10:35;9.10;72.30
15105;DHT22;7653;48.994;9.212;2022-11-10T18:13:01;9.20;71.80
15105;DHT22;7653;48.994;9.212;2022-11-10T18:15:27;9.30;72.70
15105;DHT22;7653;48.994;9.212;2022-11-10T18:17:55;9.40;73.60
15105;DHT22;7653;48.994;9.212;2022-11-10T18:20:20;9.50;72.90
15105;DHT22;7653;48.994;9.212;2022-11-10T18:22:46;9.40;72.10